sensor_id;sensor_type;location;lat;lon;timestamp;P1;durP1;ratioP1;P2;durP2;ratioP2
12838;SDS011;6486;51.034;5.262;2024-03-06T00:01:35;3.03;;;1.60;;
12838;SDS011;6486;51.034;5.262;2024-03-06T00:04:02;1.53;;;1.03;;
12838;SDS011;6486;51.034;5.262;2024-03-06T00:06:29;2.17;;;1.57;;
12838;SDS011;6486;51.034;5.262;2024-03-06T00:08:55;2.57;;;1.50;;
12838;SDS011;6486;51.034;5.262;2024-03-06T00:11:21;1.43;;;1.33;;
12838;SDS011;6486;51.034;5.262;2024-03-06T00:13:46;2.10;;;1.67;;
12838;SDS011;6486;51.034;5.262;2024-03-06T00:16:13;1.23;;;1.00;;
12838;SDS011;6486;51.034;5.262;2024-03-06T00:18:38;1.40;;;1.30;;
12838;SDS011;6486;51.034;5.262;2024-03-06T00:21:05;2.93;;;1.60;;
12838;SDS011;6486;51.034;5.262;2024-03-06T00:23:31;2.77;;;1.43;;
12838;SDS011;6486;51.034;5.262;2024-03-06T00:25:58;3.03;;;1.43;;
12838;SDS011;6486;51.034;5.262;2024-03-06T00:28:24;1.30;;;1.03;;
12838;SDS011;6486;51.034;5.262;2024-03-06T00:30:49;2.00;;;0.80;;
12838;SDS011;6486;51.034;5.262;2024-03-06T00:33:15;1.90;;;1.60;;
12838;SDS011;6486;51.034;5.262;2024-03-06T00:35:40;1.20;;;1.10;;
12838;SDS011;6486;51.034;5.262;2024-03-06T00:38:06;3.30;;;1.63;;
12838;SDS011;6486;51.034;5.262;2024-03-06T00:40:32;1.70;;;1.30;;
12838;SDS011;6486;51.034;5.262;2024-03-06T00:42:58;2.13;;;1.33;;
12838;SDS011;6486;51.034;5.262;2024-03-06T00:45:24;1.40;;;1.30;;
12838;SDS011;6486;51.034;5.262;2024-03-06T00:47:49;1.20;;;1.10;;
12838;SDS011;6486;51.034;5.262;2024-03-06T00:50:15;1.33;;;1.20;;
12838;SDS011;6486;51.034;5.262;2024-03-06T00:52:45;1.50;;;1.20;;
12838;SDS011;6486;51.034;5.262;2024-03-06T00:55:10;2.20;;;1.50;;
12838;SDS011;6486;51.034;5.262;2024-03-06T00:57:36;1.80;;;1.60;;
12838;SDS011;6486;51.034;5.262;2024-03-06T01:00:02;1.90;;;1.23;;
12838;SDS011;6486;51.034;5.262;2024-03-06T01:02:35;1.00;;;0.97;;
12838;SDS011;6486;51.034;5.262;2024-03-06T01:05:04;1.53;;;1.03;;
12838;SDS011;6486;51.034;5.262;2024-03-06T01:07:30;1.93;;;1.00;;
12838;SDS011;6486;51.034;5.262;2024-03-06T01:09:56;1.00;;;1.00;;
12838;SDS011;6486;51.034;5.262;2024-03-06T01:12:25;1.23;;;1.10;;
12838;SDS011;6486;51.034;5.262;2024-03-06T01:14:50;1.30;;;1.20;;
12838;SDS011;6486;51.034;5.262;2024-03-06T01:17:16;0.90;;;0.90;;
12838;SDS011;6486;51.034;5.262;2024-03-06T01:19:42;1.80;;;1.20;;
12838;SDS011;6486;51.034;5.262;2024-03-06T01:22:10;2.43;;;1.87;;
12838;SDS011;6486;51.034;5.262;2024-03-06T01:24:36;1.50;;;1.40;;
12838;SDS011;6486;51.034;5.262;2024-03-06T01:27:01;2.60;;;1.43;;
12838;SDS011;6486;51.034;5.262;2024-03-06T01:29:30;1.37;;;1.27;;
12838;SDS011;6486;51.034;5.262;2024-03-06T01:31:57;4.47;;;2.53;;
12838;SDS011;6486;51.034;5.262;2024-03-06T01:34:23;2.00;;;1.47;;
12838;SDS011;6486;51.034;5.262;2024-03-06T01:36:49;1.20;;;1.10;;
12838;SDS011;6486;51.034;5.262;2024-03-06T01:39:15;1.27;;;1.17;;
12838;SDS011;6486;51.034;5.262;2024-03-06T01:41:48;1.83;;;1.00;;
12838;SDS011;6486;51.034;5.262;2024-03-06T01:44:15;1.27;;;1.10;;
12838;SDS011;6486;51.034;5.262;2024-03-06T01:46:42;2.93;;;1.47;;
12838;SDS011;6486;51.034;5.262;2024-03-06T01:49:08;1.43;;;1.00;;
12838;SDS011;6486;51.034;5.262;2024-03-06T01:51:34;1.93;;;1.30;;
12838;SDS011;6486;51.034;5.262;2024-03-06T01:54:01;1.13;;;0.97;;
12838;SDS011;6486;51.034;5.262;2024-03-06T01:56:30;1.93;;;1.50;;
12838;SDS011;6486;51.034;5.262;2024-03-06T01:58:59;2.17;;;1.00;;
12838;SDS011;6486;51.034;5.262;2024-03-06T02:01:25;5.13;;;2.70;;
12838;SDS011;6486;51.034;5.262;2024-03-06T02:03:51;2.13;;;1.13;;
12838;SDS011;6486;51.034;5.262;2024-03-06T02:06:17;2.40;;;1.73;;
12838;SDS011;6486;51.034;5.262;2024-03-06T02:08:47;2.27;;;2.07;;
12838;SDS011;6486;51.034;5.262;2024-03-06T02:11:13;3.03;;;1.70;;
12838;SDS011;6486;51.034;5.262;2024-03-06T02:13:39;3.87;;;1.90;;
12838;SDS011;6486;51.034;5.262;2024-03-06T02:16:05;2.03;;;1.37;;
12838;SDS011;6486;51.034;5.262;2024-03-06T02:18:31;2.90;;;1.40;;
12838;SDS011;6486;51.034;5.262;2024-03-06T02:20:57;1.80;;;1.37;;
12838;SDS011;6486;51.034;5.262;2024-03-06T02:23:22;1.80;;;1.63;;
12838;SDS011;6486;51.034;5.262;2024-03-06T02:25:49;2.70;;;1.57;;
12838;SDS011;6486;51.034;5.262;2024-03-06T02:28:16;1.30;;;1.07;;
12838;SDS011;6486;51.034;5.262;2024-03-06T02:30:42;0.97;;;0.97;;
12838;SDS011;6486;51.034;5.262;2024-03-06T02:33:08;2.53;;;1.57;;
12838;SDS011;6486;51.034;5.262;2024-03-06T02:35:34;2.90;;;1.30;;
12838;SDS011;6486;51.034;5.262;2024-03-06T02:38:01;3.47;;;2.43;;
12838;SDS011;6486;51.034;5.262;2024-03-06T02:40:29;1.93;;;1.37;;
12838;SDS011;6486;51.034;5.262;2024-03-06T02:42:55;2.60;;;1.50;;
12838;SDS011;6486;51.034;5.262;2024-03-06T02:45:21;1.30;;;1.20;;
12838;SDS011;6486;51.034;5.262;2024-03-06T02:47:47;1.30;;;1.20;;
12838;SDS011;6486;51.034;5.262;2024-03-06T02:50:12;2.13;;;1.03;;
12838;SDS011;6486;51.034;5.262;2024-03-06T02:52:39;1.33;;;1.23;;
12838;SDS011;6486;51.034;5.262;2024-03-06T02:55:05;2.17;;;1.50;;
12838;SDS011;6486;51.034;5.262;2024-03-06T02:57:31;1.20;;;1.10;;
12838;SDS011;6486;51.034;5.262;2024-03-06T02:59:57;1.70;;;1.30;;
12838;SDS011;6486;51.034;5.262;2024-03-06T03:02:23;2.30;;;0.80;;
12838;SDS011;6486;51.034;5.262;2024-03-06T03:04:51;1.20;;;0.90;;
12838;SDS011;6486;51.034;5.262;2024-03-06T03:07:18;1.70;;;1.43;;
12838;SDS011;6486;51.034;5.262;2024-03-06T03:09:46;1.40;;;1.30;;
12838;SDS011;6486;51.034;5.262;2024-03-06T03:12:12;1.27;;;1.10;;
12838;SDS011;6486;51.034;5.262;2024-03-06T03:14:39;1.97;;;1.57;;
12838;SDS011;6486;51.034;5.262;2024-03-06T03:17:06;2.03;;;1.87;;
12838;SDS011;6486;51.034;5.262;2024-03-06T03:19:33;1.47;;;1.37;;
12838;SDS011;6486;51.034;5.262;2024-03-06T03:21:58;1.37;;;1.33;;
12838;SDS011;6486;51.034;5.262;2024-03-06T03:24:24;1.30;;;1.20;;
12838;SDS011;6486;51.034;5.262;2024-03-06T03:26:53;2.00;;;1.47;;
12838;SDS011;6486;51.034;5.262;2024-03-06T03:29:18;1.47;;;1.33;;
12838;SDS011;6486;51.034;5.262;2024-03-06T03:31:45;2.27;;;1.03;;
12838;SDS011;6486;51.034;5.262;2024-03-06T03:34:11;2.87;;;1.27;;
12838;SDS011;6486;51.034;5.262;2024-03-06T03:36:41;1.50;;;1.17;;
12838;SDS011;6486;51.034;5.262;2024-03-06T03:39:10;1.40;;;1.30;;
12838;SDS011;6486;51.034;5.262;2024-03-06T03:41:47;1.33;;;1.23;;
12838;SDS011;6486;51.034;5.262;2024-03-06T03:44:14;1.93;;;1.83;;
12838;SDS011;6486;51.034;5.262;2024-03-06T03:46:42;1.73;;;1.50;;
12838;SDS011;6486;51.034;5.262;2024-03-06T03:49:08;1.90;;;1.50;;
12838;SDS011;6486;51.034;5.262;2024-03-06T03:51:34;1.50;;;1.30;;
12838;SDS011;6486;51.034;5.262;2024-03-06T03:54:04;1.40;;;1.40;;
12838;SDS011;6486;51.034;5.262;2024-03-06T03:56:30;2.80;;;1.83;;
12838;SDS011;6486;51.034;5.262;2024-03-06T03:58:56;1.40;;;1.27;;
12838;SDS011;6486;51.034;5.262;2024-03-06T04:01:23;2.77;;;1.67;;
12838;SDS011;6486;51.034;5.262;2024-03-06T04:03:49;2.13;;;1.63;;
12838;SDS011;6486;51.034;5.262;2024-03-06T04:06:16;1.40;;;1.30;;
12838;SDS011;6486;51.034;5.262;2024-03-06T04:08:42;1.77;;;1.43;;
12838;SDS011;6486;51.034;5.262;2024-03-06T04:11:07;1.67;;;1.10;;
12838;SDS011;6486;51.034;5.262;2024-03-06T04:13:36;2.47;;;1.80;;
12838;SDS011;6486;51.034;5.262;2024-03-06T04:16:02;2.93;;;1.57;;
12838;SDS011;6486;51.034;5.262;2024-03-06T04:18:29;1.67;;;1.20;;
12838;SDS011;6486;51.034;5.262;2024-03-06T04:20:59;1.67;;;1.20;;
12838;SDS011;6486;51.034;5.262;2024-03-06T04:23:30;2.00;;;1.07;;
12838;SDS011;6486;51.034;5.262;2024-03-06T04:25:56;1.33;;;1.23;;
12838;SDS011;6486;51.034;5.262;2024-03-06T04:28:21;1.23;;;1.17;;
12838;SDS011;6486;51.034;5.262;2024-03-06T04:30:47;3.00;;;1.40;;
12838;SDS011;6486;51.034;5.262;2024-03-06T04:33:12;1.90;;;1.13;;
12838;SDS011;6486;51.034;5.262;2024-03-06T04:35:40;1.30;;;1.20;;
12838;SDS011;6486;51.034;5.262;2024-03-06T04:38:06;1.10;;;0.93;;
12838;SDS011;6486;51.034;5.262;2024-03-06T04:40:32;1.27;;;0.83;;
12838;SDS011;6486;51.034;5.262;2024-03-06T04:42:59;1.87;;;1.50;;
12838;SDS011;6486;51.034;5.262;2024-03-06T04:45:25;1.90;;;1.77;;
12838;SDS011;6486;51.034;5.262;2024-03-06T04:47:51;1.83;;;1.43;;
12838;SDS011;6486;51.034;5.262;2024-03-06T04:50:17;0.93;;;0.93;;
12838;SDS011;6486;51.034;5.262;2024-03-06T04:52:43;2.17;;;1.60;;
12838;SDS011;6486;51.034;5.262;2024-03-06T04:55:12;1.27;;;1.10;;
12838;SDS011;6486;51.034;5.262;2024-03-06T04:57:41;1.27;;;1.13;;
12838;SDS011;6486;51.034;5.262;2024-03-06T05:00:09;1.73;;;1.60;;
12838;SDS011;6486;51.034;5.262;2024-03-06T05:02:35;1.87;;;1.70;;
12838;SDS011;6486;51.034;5.262;2024-03-06T05:05:02;2.00;;;1.40;;
12838;SDS011;6486;51.034;5.262;2024-03-06T05:07:28;2.00;;;1.30;;
12838;SDS011;6486;51.034;5.262;2024-03-06T05:09:58;4.67;;;1.27;;
12838;SDS011;6486;51.034;5.262;2024-03-06T05:12:25;2.13;;;1.23;;
12838;SDS011;6486;51.034;5.262;2024-03-06T05:14:54;1.73;;;1.30;;
12838;SDS011;6486;51.034;5.262;2024-03-06T05:17:20;1.70;;;1.40;;
12838;SDS011;6486;51.034;5.262;2024-03-06T05:19:46;5.37;;;1.10;;
12838;SDS011;6486;51.034;5.262;2024-03-06T05:22:14;1.13;;;1.03;;
12838;SDS011;6486;51.034;5.262;2024-03-06T05:24:42;2.30;;;1.27;;
12838;SDS011;6486;51.034;5.262;2024-03-06T05:27:08;1.40;;;1.07;;
12838;SDS011;6486;51.034;5.262;2024-03-06T05:29:35;2.23;;;1.10;;
12838;SDS011;6486;51.034;5.262;2024-03-06T05:32:01;1.03;;;0.80;;
12838;SDS011;6486;51.034;5.262;2024-03-06T05:34:28;1.60;;;1.20;;
12838;SDS011;6486;51.034;5.262;2024-03-06T05:36:54;1.20;;;1.17;;
12838;SDS011;6486;51.034;5.262;2024-03-06T05:39:20;0.83;;;0.83;;
12838;SDS011;6486;51.034;5.262;2024-03-06T05:41:46;1.20;;;1.13;;
12838;SDS011;6486;51.034;5.262;2024-03-06T05:44:11;0.83;;;0.83;;
12838;SDS011;6486;51.034;5.262;2024-03-06T05:46:38;0.90;;;0.90;;
12838;SDS011;6486;51.034;5.262;2024-03-06T05:49:04;1.27;;;1.10;;
12838;SDS011;6486;51.034;5.262;2024-03-06T05:51:29;1.30;;;1.10;;
12838;SDS011;6486;51.034;5.262;2024-03-06T05:53:55;1.23;;;1.13;;
12838;SDS011;6486;51.034;5.262;2024-03-06T05:56:21;4.50;;;0.97;;
12838;SDS011;6486;51.034;5.262;2024-03-06T05:58:47;1.40;;;1.30;;
12838;SDS011;6486;51.034;5.262;2024-03-06T06:01:13;0.90;;;0.73;;
12838;SDS011;6486;51.034;5.262;2024-03-06T06:03:40;0.97;;;0.87;;
12838;SDS011;6486;51.034;5.262;2024-03-06T06:06:06;1.33;;;1.00;;
12838;SDS011;6486;51.034;5.262;2024-03-06T06:08:33;1.40;;;1.23;;
12838;SDS011;6486;51.034;5.262;2024-03-06T06:11:00;1.20;;;1.07;;
12838;SDS011;6486;51.034;5.262;2024-03-06T06:13:28;0.90;;;0.90;;
12838;SDS011;6486;51.034;5.262;2024-03-06T06:15:53;1.13;;;1.07;;
12838;SDS011;6486;51.034;5.262;2024-03-06T06:18:19;1.00;;;0.90;;
12838;SDS011;6486;51.034;5.262;2024-03-06T06:20:45;1.90;;;1.00;;
12838;SDS011;6486;51.034;5.262;2024-03-06T06:23:11;1.20;;;0.80;;
12838;SDS011;6486;51.034;5.262;2024-03-06T06:25:36;2.23;;;1.30;;
12838;SDS011;6486;51.034;5.262;2024-03-06T06:28:02;1.47;;;0.90;;
12838;SDS011;6486;51.034;5.262;2024-03-06T06:30:28;1.27;;;1.03;;
12838;SDS011;6486;51.034;5.262;2024-03-06T06:32:54;1.73;;;1.10;;
12838;SDS011;6486;51.034;5.262;2024-03-06T06:35:20;2.87;;;1.13;;
12838;SDS011;6486;51.034;5.262;2024-03-06T06:37:49;0.70;;;0.70;;
12838;SDS011;6486;51.034;5.262;2024-03-06T06:40:14;0.60;;;0.60;;
12838;SDS011;6486;51.034;5.262;2024-03-06T06:42:44;0.80;;;0.80;;
12838;SDS011;6486;51.034;5.262;2024-03-06T06:45:14;0.80;;;0.80;;
12838;SDS011;6486;51.034;5.262;2024-03-06T06:47:41;1.10;;;1.10;;
12838;SDS011;6486;51.034;5.262;2024-03-06T06:50:07;1.30;;;1.20;;
12838;SDS011;6486;51.034;5.262;2024-03-06T06:52:34;0.93;;;0.90;;
12838;SDS011;6486;51.034;5.262;2024-03-06T06:55:00;1.20;;;1.10;;
12838;SDS011;6486;51.034;5.262;2024-03-06T06:57:26;1.23;;;0.97;;
12838;SDS011;6486;51.034;5.262;2024-03-06T06:59:52;2.47;;;1.93;;
12838;SDS011;6486;51.034;5.262;2024-03-06T07:02:18;2.97;;;1.40;;
12838;SDS011;6486;51.034;5.262;2024-03-06T07:04:43;1.90;;;1.13;;
12838;SDS011;6486;51.034;5.262;2024-03-06T07:07:09;1.50;;;1.17;;
12838;SDS011;6486;51.034;5.262;2024-03-06T07:09:35;0.77;;;0.70;;
12838;SDS011;6486;51.034;5.262;2024-03-06T07:12:00;2.37;;;1.70;;
12838;SDS011;6486;51.034;5.262;2024-03-06T07:14:26;2.20;;;1.20;;
12838;SDS011;6486;51.034;5.262;2024-03-06T07:16:52;0.97;;;0.80;;
12838;SDS011;6486;51.034;5.262;2024-03-06T07:19:17;1.07;;;0.90;;
12838;SDS011;6486;51.034;5.262;2024-03-06T07:21:43;0.70;;;0.70;;
12838;SDS011;6486;51.034;5.262;2024-03-06T07:24:09;3.13;;;1.00;;
12838;SDS011;6486;51.034;5.262;2024-03-06T07:26:34;0.90;;;0.90;;
12838;SDS011;6486;51.034;5.262;2024-03-06T07:29:00;1.57;;;0.93;;
12838;SDS011;6486;51.034;5.262;2024-03-06T07:31:26;2.40;;;1.03;;
12838;SDS011;6486;51.034;5.262;2024-03-06T07:33:52;0.63;;;0.63;;
12838;SDS011;6486;51.034;5.262;2024-03-06T07:36:18;1.80;;;1.53;;
12838;SDS011;6486;51.034;5.262;2024-03-06T07:38:44;1.30;;;1.20;;
12838;SDS011;6486;51.034;5.262;2024-03-06T07:41:11;1.10;;;1.00;;
12838;SDS011;6486;51.034;5.262;2024-03-06T07:43:37;4.17;;;1.10;;
12838;SDS011;6486;51.034;5.262;2024-03-06T07:46:03;1.23;;;0.80;;
12838;SDS011;6486;51.034;5.262;2024-03-06T07:48:35;0.90;;;0.90;;
12838;SDS011;6486;51.034;5.262;2024-03-06T07:51:07;1.17;;;1.07;;
12838;SDS011;6486;51.034;5.262;2024-03-06T07:53:33;2.70;;;1.53;;
12838;SDS011;6486;51.034;5.262;2024-03-06T07:55:58;0.73;;;0.73;;
12838;SDS011;6486;51.034;5.262;2024-03-06T07:58:24;0.90;;;0.90;;
12838;SDS011;6486;51.034;5.262;2024-03-06T08:00:50;1.03;;;1.00;;
12838;SDS011;6486;51.034;5.262;2024-03-06T08:03:20;0.80;;;0.80;;
12838;SDS011;6486;51.034;5.262;2024-03-06T08:05:47;1.27;;;1.23;;
12838;SDS011;6486;51.034;5.262;2024-03-06T08:08:21;1.73;;;0.90;;
12838;SDS011;6486;51.034;5.262;2024-03-06T08:10:47;5.47;;;1.20;;
12838;SDS011;6486;51.034;5.262;2024-03-06T08:13:13;1.77;;;1.03;;
12838;SDS011;6486;51.034;5.262;2024-03-06T08:15:39;1.23;;;1.17;;
12838;SDS011;6486;51.034;5.262;2024-03-06T08:18:05;0.90;;;0.90;;
12838;SDS011;6486;51.034;5.262;2024-03-06T08:20:31;1.10;;;1.00;;
12838;SDS011;6486;51.034;5.262;2024-03-06T08:22:57;1.17;;;0.77;;
12838;SDS011;6486;51.034;5.262;2024-03-06T08:25:24;2.90;;;1.20;;
12838;SDS011;6486;51.034;5.262;2024-03-06T08:27:50;0.70;;;0.70;;
12838;SDS011;6486;51.034;5.262;2024-03-06T08:30:16;1.57;;;1.03;;
12838;SDS011;6486;51.034;5.262;2024-03-06T08:32:42;2.20;;;1.17;;
12838;SDS011;6486;51.034;5.262;2024-03-06T08:35:09;0.90;;;0.90;;
12838;SDS011;6486;51.034;5.262;2024-03-06T08:37:38;0.90;;;0.80;;
12838;SDS011;6486;51.034;5.262;2024-03-06T08:40:04;0.70;;;0.70;;
12838;SDS011;6486;51.034;5.262;2024-03-06T08:42:32;1.17;;;0.97;;
12838;SDS011;6486;51.034;5.262;2024-03-06T08:44:58;1.87;;;1.20;;
12838;SDS011;6486;51.034;5.262;2024-03-06T08:47:24;0.50;;;0.47;;
12838;SDS011;6486;51.034;5.262;2024-03-06T08:49:49;1.60;;;0.90;;
12838;SDS011;6486;51.034;5.262;2024-03-06T08:52:15;1.00;;;0.70;;
12838;SDS011;6486;51.034;5.262;2024-03-06T08:54:41;0.87;;;0.87;;
12838;SDS011;6486;51.034;5.262;2024-03-06T08:57:07;1.03;;;0.93;;
12838;SDS011;6486;51.034;5.262;2024-03-06T08:59:33;0.70;;;0.70;;
12838;SDS011;6486;51.034;5.262;2024-03-06T09:02:10;0.67;;;0.67;;
12838;SDS011;6486;51.034;5.262;2024-03-06T09:04:38;1.57;;;0.90;;
12838;SDS011;6486;51.034;5.262;2024-03-06T09:07:03;1.33;;;0.93;;
12838;SDS011;6486;51.034;5.262;2024-03-06T09:09:29;3.10;;;0.57;;
12838;SDS011;6486;51.034;5.262;2024-03-06T09:11:55;1.10;;;1.00;;
12838;SDS011;6486;51.034;5.262;2024-03-06T09:14:20;1.93;;;0.70;;
12838;SDS011;6486;51.034;5.262;2024-03-06T09:16:48;0.60;;;0.60;;
12838;SDS011;6486;51.034;5.262;2024-03-06T09:19:13;0.80;;;0.60;;
12838;SDS011;6486;51.034;5.262;2024-03-06T09:21:39;0.90;;;0.90;;
12838;SDS011;6486;51.034;5.262;2024-03-06T09:24:04;1.17;;;1.07;;
12838;SDS011;6486;51.034;5.262;2024-03-06T09:26:30;0.63;;;0.60;;
12838;SDS011;6486;51.034;5.262;2024-03-06T09:28:56;0.80;;;0.50;;
12838;SDS011;6486;51.034;5.262;2024-03-06T09:31:21;0.50;;;0.50;;
12838;SDS011;6486;51.034;5.262;2024-03-06T09:33:47;0.83;;;0.77;;
12838;SDS011;6486;51.034;5.262;2024-03-06T09:36:13;4.00;;;1.37;;
12838;SDS011;6486;51.034;5.262;2024-03-06T09:38:39;1.70;;;0.70;;
12838;SDS011;6486;51.034;5.262;2024-03-06T09:41:05;0.80;;;0.63;;
12838;SDS011;6486;51.034;5.262;2024-03-06T09:43:33;2.03;;;0.73;;
12838;SDS011;6486;51.034;5.262;2024-03-06T09:45:59;3.47;;;1.03;;
12838;SDS011;6486;51.034;5.262;2024-03-06T09:48:27;1.17;;;0.70;;
12838;SDS011;6486;51.034;5.262;2024-03-06T09:50:54;3.23;;;0.83;;
12838;SDS011;6486;51.034;5.262;2024-03-06T09:53:25;1.13;;;0.77;;
12838;SDS011;6486;51.034;5.262;2024-03-06T09:55:52;0.83;;;0.70;;
12838;SDS011;6486;51.034;5.262;2024-03-06T09:58:20;0.60;;;0.60;;
12838;SDS011;6486;51.034;5.262;2024-03-06T10:00:46;2.03;;;0.70;;
12838;SDS011;6486;51.034;5.262;2024-03-06T10:03:13;0.60;;;0.60;;
12838;SDS011;6486;51.034;5.262;2024-03-06T10:05:39;1.13;;;0.90;;
12838;SDS011;6486;51.034;5.262;2024-03-06T10:08:05;0.43;;;0.43;;
12838;SDS011;6486;51.034;5.262;2024-03-06T10:10:31;0.97;;;0.87;;
12838;SDS011;6486;51.034;5.262;2024-03-06T10:12:57;1.43;;;1.00;;
12838;SDS011;6486;51.034;5.262;2024-03-06T10:15:26;0.50;;;0.47;;
12838;SDS011;6486;51.034;5.262;2024-03-06T10:18:09;0.60;;;0.53;;
12838;SDS011;6486;51.034;5.262;2024-03-06T10:20:40;1.60;;;0.50;;
12838;SDS011;6486;51.034;5.262;2024-03-06T10:23:09;4.37;;;1.00;;
12838;SDS011;6486;51.034;5.262;2024-03-06T10:25:35;1.33;;;0.43;;
12838;SDS011;6486;51.034;5.262;2024-03-06T10:28:05;0.83;;;0.40;;
12838;SDS011;6486;51.034;5.262;2024-03-06T10:30:35;0.30;;;0.30;;
12838;SDS011;6486;51.034;5.262;2024-03-06T10:33:07;0.83;;;0.73;;
12838;SDS011;6486;51.034;5.262;2024-03-06T10:35:36;0.77;;;0.40;;
12838;SDS011;6486;51.034;5.262;2024-03-06T10:38:03;0.60;;;0.60;;
12838;SDS011;6486;51.034;5.262;2024-03-06T10:40:34;1.87;;;0.67;;
12838;SDS011;6486;51.034;5.262;2024-03-06T10:43:02;0.50;;;0.40;;
12838;SDS011;6486;51.034;5.262;2024-03-06T10:48:19;0.73;;;0.60;;
12838;SDS011;6486;51.034;5.262;2024-03-06T10:50:45;1.57;;;0.60;;
12838;SDS011;6486;51.034;5.262;2024-03-06T10:53:12;0.40;;;0.40;;
12838;SDS011;6486;51.034;5.262;2024-03-06T10:55:39;1.47;;;0.63;;
12838;SDS011;6486;51.034;5.262;2024-03-06T10:58:06;0.53;;;0.30;;
12838;SDS011;6486;51.034;5.262;2024-03-06T11:00:42;0.93;;;0.63;;
12838;SDS011;6486;51.034;5.262;2024-03-06T11:03:13;0.47;;;0.40;;
12838;SDS011;6486;51.034;5.262;2024-03-06T11:05:40;0.97;;;0.70;;
12838;SDS011;6486;51.034;5.262;2024-03-06T11:08:06;0.50;;;0.50;;
12838;SDS011;6486;51.034;5.262;2024-03-06T11:10:33;2.93;;;0.47;;
12838;SDS011;6486;51.034;5.262;2024-03-06T11:13:03;0.87;;;0.87;;
12838;SDS011;6486;51.034;5.262;2024-03-06T11:15:44;0.40;;;0.40;;
12838;SDS011;6486;51.034;5.262;2024-03-06T11:23:29;0.87;;;0.60;;
12838;SDS011;6486;51.034;5.262;2024-03-06T11:25:56;0.40;;;0.40;;
12838;SDS011;6486;51.034;5.262;2024-03-06T11:28:26;0.30;;;0.30;;
12838;SDS011;6486;51.034;5.262;2024-03-06T11:33:35;1.10;;;0.30;;
12838;SDS011;6486;51.034;5.262;2024-03-06T11:36:20;1.13;;;0.47;;
12838;SDS011;6486;51.034;5.262;2024-03-06T11:38:59;0.33;;;0.33;;
12838;SDS011;6486;51.034;5.262;2024-03-06T11:41:51;0.93;;;0.63;;
12838;SDS011;6486;51.034;5.262;2024-03-06T11:44:17;0.23;;;0.23;;
12838;SDS011;6486;51.034;5.262;2024-03-06T11:49:32;1.30;;;0.30;;
12838;SDS011;6486;51.034;5.262;2024-03-06T11:52:00;0.57;;;0.27;;
12838;SDS011;6486;51.034;5.262;2024-03-06T11:54:27;0.37;;;0.20;;
12838;SDS011;6486;51.034;5.262;2024-03-06T11:56:55;0.10;;;0.10;;
12838;SDS011;6486;51.034;5.262;2024-03-06T11:59:25;0.40;;;0.30;;
12838;SDS011;6486;51.034;5.262;2024-03-06T12:01:55;0.20;;;0.20;;
12838;SDS011;6486;51.034;5.262;2024-03-06T12:04:22;1.10;;;0.40;;
12838;SDS011;6486;51.034;5.262;2024-03-06T12:06:49;0.10;;;0.10;;
12838;SDS011;6486;51.034;5.262;2024-03-06T12:09:15;0.53;;;0.20;;
12838;SDS011;6486;51.034;5.262;2024-03-06T12:11:42;0.37;;;0.37;;
12838;SDS011;6486;51.034;5.262;2024-03-06T12:14:17;2.53;;;0.30;;
12838;SDS011;6486;51.034;5.262;2024-03-06T12:16:44;3.50;;;0.80;;
12838;SDS011;6486;51.034;5.262;2024-03-06T12:19:27;0.57;;;0.43;;
12838;SDS011;6486;51.034;5.262;2024-03-06T12:21:54;0.97;;;0.53;;
12838;SDS011;6486;51.034;5.262;2024-03-06T12:24:20;1.90;;;0.37;;
12838;SDS011;6486;51.034;5.262;2024-03-06T12:26:46;0.20;;;0.20;;
12838;SDS011;6486;51.034;5.262;2024-03-06T12:29:17;0.40;;;0.37;;
12838;SDS011;6486;51.034;5.262;2024-03-06T12:31:46;0.27;;;0.27;;
12838;SDS011;6486;51.034;5.262;2024-03-06T12:34:15;2.77;;;0.70;;
12838;SDS011;6486;51.034;5.262;2024-03-06T12:36:43;0.33;;;0.30;;
12838;SDS011;6486;51.034;5.262;2024-03-06T12:39:10;1.83;;;0.30;;
12838;SDS011;6486;51.034;5.262;2024-03-06T12:41:43;1.03;;;0.70;;
12838;SDS011;6486;51.034;5.262;2024-03-06T12:44:09;0.93;;;0.30;;
12838;SDS011;6486;51.034;5.262;2024-03-06T12:46:34;1.53;;;0.43;;
12838;SDS011;6486;51.034;5.262;2024-03-06T12:49:00;0.63;;;0.60;;
12838;SDS011;6486;51.034;5.262;2024-03-06T12:51:26;0.30;;;0.30;;
12838;SDS011;6486;51.034;5.262;2024-03-06T12:53:52;0.30;;;0.27;;
12838;SDS011;6486;51.034;5.262;2024-03-06T12:56:18;0.10;;;0.10;;
12838;SDS011;6486;51.034;5.262;2024-03-06T12:58:44;0.40;;;0.30;;
12838;SDS011;6486;51.034;5.262;2024-03-06T13:01:10;0.83;;;0.50;;
12838;SDS011;6486;51.034;5.262;2024-03-06T13:03:36;0.20;;;0.20;;
12838;SDS011;6486;51.034;5.262;2024-03-06T13:06:02;0.57;;;0.20;;
12838;SDS011;6486;51.034;5.262;2024-03-06T13:08:29;0.10;;;0.10;;
12838;SDS011;6486;51.034;5.262;2024-03-06T13:10:56;0.10;;;0.10;;
12838;SDS011;6486;51.034;5.262;2024-03-06T13:13:22;0.30;;;0.30;;
12838;SDS011;6486;51.034;5.262;2024-03-06T13:15:49;0.13;;;0.13;;
12838;SDS011;6486;51.034;5.262;2024-03-06T13:18:17;0.10;;;0.10;;
12838;SDS011;6486;51.034;5.262;2024-03-06T13:20:43;1.60;;;0.43;;
12838;SDS011;6486;51.034;5.262;2024-03-06T13:23:09;0.80;;;0.50;;
12838;SDS011;6486;51.034;5.262;2024-03-06T13:25:36;0.20;;;0.20;;
12838;SDS011;6486;51.034;5.262;2024-03-06T13:28:01;0.30;;;0.30;;
12838;SDS011;6486;51.034;5.262;2024-03-06T13:30:28;0.90;;;0.53;;
12838;SDS011;6486;51.034;5.262;2024-03-06T13:32:54;1.27;;;0.50;;
12838;SDS011;6486;51.034;5.262;2024-03-06T13:35:19;1.33;;;0.97;;
12838;SDS011;6486;51.034;5.262;2024-03-06T13:37:45;0.33;;;0.33;;
12838;SDS011;6486;51.034;5.262;2024-03-06T13:40:12;0.67;;;0.20;;
12838;SDS011;6486;51.034;5.262;2024-03-06T13:42:38;0.33;;;0.33;;
12838;SDS011;6486;51.034;5.262;2024-03-06T13:45:06;1.27;;;0.40;;
12838;SDS011;6486;51.034;5.262;2024-03-06T13:47:39;0.43;;;0.30;;
12838;SDS011;6486;51.034;5.262;2024-03-06T13:50:09;0.93;;;0.67;;
12838;SDS011;6486;51.034;5.262;2024-03-06T13:52:42;0.80;;;0.80;;
12838;SDS011;6486;51.034;5.262;2024-03-06T13:55:09;0.30;;;0.30;;
12838;SDS011;6486;51.034;5.262;2024-03-06T13:57:36;0.43;;;0.43;;
12838;SDS011;6486;51.034;5.262;2024-03-06T14:00:06;0.80;;;0.47;;
12838;SDS011;6486;51.034;5.262;2024-03-06T14:02:42;1.50;;;0.33;;
12838;SDS011;6486;51.034;5.262;2024-03-06T14:05:08;1.13;;;0.37;;
12838;SDS011;6486;51.034;5.262;2024-03-06T14:07:34;1.23;;;0.47;;
12838;SDS011;6486;51.034;5.262;2024-03-06T14:10:00;0.77;;;0.30;;
12838;SDS011;6486;51.034;5.262;2024-03-06T14:12:25;0.27;;;0.27;;
12838;SDS011;6486;51.034;5.262;2024-03-06T14:14:51;1.23;;;0.30;;
12838;SDS011;6486;51.034;5.262;2024-03-06T14:17:17;0.80;;;0.20;;
12838;SDS011;6486;51.034;5.262;2024-03-06T14:19:43;1.53;;;0.33;;
12838;SDS011;6486;51.034;5.262;2024-03-06T14:22:10;7.13;;;0.70;;
12838;SDS011;6486;51.034;5.262;2024-03-06T14:24:36;0.20;;;0.20;;
12838;SDS011;6486;51.034;5.262;2024-03-06T14:27:02;0.20;;;0.20;;
12838;SDS011;6486;51.034;5.262;2024-03-06T14:29:28;0.23;;;0.20;;
12838;SDS011;6486;51.034;5.262;2024-03-06T14:31:56;0.47;;;0.20;;
12838;SDS011;6486;51.034;5.262;2024-03-06T14:34:22;1.90;;;0.30;;
12838;SDS011;6486;51.034;5.262;2024-03-06T14:36:49;0.40;;;0.17;;
12838;SDS011;6486;51.034;5.262;2024-03-06T14:39:19;1.20;;;0.30;;
12838;SDS011;6486;51.034;5.262;2024-03-06T14:41:49;1.13;;;0.33;;
12838;SDS011;6486;51.034;5.262;2024-03-06T14:44:15;0.90;;;0.50;;
12838;SDS011;6486;51.034;5.262;2024-03-06T14:46:41;0.30;;;0.30;;
12838;SDS011;6486;51.034;5.262;2024-03-06T14:49:07;0.63;;;0.23;;
12838;SDS011;6486;51.034;5.262;2024-03-06T14:51:33;0.63;;;0.50;;
12838;SDS011;6486;51.034;5.262;2024-03-06T14:53:59;1.73;;;0.50;;
12838;SDS011;6486;51.034;5.262;2024-03-06T14:56:24;2.67;;;0.30;;
12838;SDS011;6486;51.034;5.262;2024-03-06T14:58:50;0.50;;;0.40;;
12838;SDS011;6486;51.034;5.262;2024-03-06T15:01:16;0.60;;;0.60;;
12838;SDS011;6486;51.034;5.262;2024-03-06T15:03:42;3.50;;;0.20;;
12838;SDS011;6486;51.034;5.262;2024-03-06T15:06:08;0.20;;;0.20;;
12838;SDS011;6486;51.034;5.262;2024-03-06T15:08:36;0.20;;;0.20;;
12838;SDS011;6486;51.034;5.262;2024-03-06T15:11:02;0.20;;;0.17;;
12838;SDS011;6486;51.034;5.262;2024-03-06T15:13:28;0.40;;;0.20;;